Dades meteomassalio
Diari Summary for Diciembre 6, 2017 Units:  Metric    English   Both
« Previous Day
Next Day »
Diari Semanal Mensual Anual Personalitzat
  Maxima: Minima: Mijana:
Temperatura: 8.9 °C -7.2 °C -1.3 °C
Rosada: 1.1 °C -8.7 °C -4.8 °C
Humitat: 91 % 57 % 79 %
Velocitat del vent: 11.1 km/h 0.0 km/h 1.1 km/h
Racha vent: 11.1 km/h - -
Vent:- - SSE
Pressio: 1039.8 hPa 1036.1 hPa -
Pluja: 0.3 mm    
Historical Graphs
 
 
Tabular Data for Diciembre 6, 2017
Time Temperature Dew Point Pressure Wind Wind Speed Wind Gust Humidity Rainfall Rate (Hourly) solar Conditions
00:04 -3.3 °C -5.2 °C 1039.8 hPa Calm     87 % 0.0 mm 0.0 W/m2 CLR
00:09 -3.3 °C -5.2 °C 1039.8 hPa Calm     87 % 0.0 mm 0.0 W/m2 CLR
00:14 -3.3 °C -5.1 °C 1039.8 hPa Calm     88 % 0.0 mm 0.0 W/m2 CLR
00:19 -3.9 °C -5.6 °C 1039.8 hPa Calm     88 % 0.0 mm 0.0 W/m2 CLR
00:24 -3.9 °C -5.7 °C 1039.5 hPa Calm     87 % 0.0 mm 0.0 W/m2 CLR
00:29 -3.9 °C -5.7 °C 1039.5 hPa Calm     87 % 0.0 mm 0.0 W/m2 CLR
00:34 -3.9 °C -5.7 °C 1039.5 hPa Calm     87 % 0.0 mm 0.0 W/m2 CLR
00:39 -3.9 °C -5.7 °C 1039.5 hPa Calm     87 % 0.0 mm 0.0 W/m2 CLR
00:40 -3.9 °C -5.7 °C 1039.5 hPa Calm     87 % 0.0 mm 0.0 W/m2 CLR
00:45 -3.9 °C -5.6 °C 1039.5 hPa Calm     88 % 0.0 mm 0.0 W/m2 CLR
00:50 -3.9 °C -5.6 °C 1039.5 hPa Calm     88 % 0.0 mm 0.0 W/m2 CLR
00:55 -3.9 °C -5.6 °C 1039.5 hPa Calm     88 % 0.0 mm 0.0 W/m2 CLR
01:00 -4.4 °C -6.3 °C 1039.5 hPa Calm     87 % 0.0 mm 0.0 W/m2 CLR
01:05 -4.4 °C -6.1 °C 1039.5 hPa Calm     88 % 0.0 mm 0.0 W/m2 CLR
01:10 -4.4 °C -6.1 °C 1039.5 hPa Calm     88 % 0.0 mm 0.0 W/m2 CLR
01:15 -4.4 °C -6.1 °C 1039.5 hPa Calm     88 % 0.0 mm 0.0 W/m2 CLR
01:20 -4.4 °C -6.0 °C 1039.5 hPa Calm     89 % 0.0 mm 0.0 W/m2 CLR
01:25 -4.4 °C -6.1 °C 1039.5 hPa Calm     88 % 0.0 mm 0.0 W/m2 CLR
01:30 -4.4 °C -6.0 °C 1039.5 hPa Calm     89 % 0.0 mm 0.0 W/m2 CLR
01:35 -4.4 °C -6.1 °C 1039.5 hPa Calm     88 % 0.0 mm 0.0 W/m2 CLR
01:40 -5.0 °C -6.6 °C 1039.5 hPa Calm     89 % 0.0 mm 0.0 W/m2 CLR
01:45 -5.0 °C -6.7 °C 1039.2 hPa Calm     88 % 0.0 mm 0.0 W/m2 CLR
01:50 -4.4 °C -6.0 °C 1039.2 hPa Calm     89 % 0.0 mm 0.0 W/m2 CLR
01:55 -5.0 °C -6.6 °C 1039.2 hPa Calm     89 % 0.0 mm 0.0 W/m2 CLR
01:57 -5.0 °C -6.7 °C 1039.2 hPa Calm     88 % 0.0 mm 0.0 W/m2 CLR
02:02 -5.0 °C -6.7 °C 1039.2 hPa Calm     88 % 0.0 mm 0.0 W/m2 CLR
02:07 -5.0 °C -6.7 °C 1039.2 hPa Calm     88 % 0.0 mm 0.0 W/m2 CLR
02:12 -5.0 °C -6.7 °C 1039.2 hPa Calm     88 % 0.0 mm 0.0 W/m2 CLR
02:17 -5.0 °C -6.6 °C 1039.2 hPa Calm     89 % 0.0 mm 0.0 W/m2 CLR
02:22 -5.0 °C -6.6 °C 1039.2 hPa Calm     89 % 0.0 mm 0.0 W/m2 CLR
02:27 -5.0 °C -6.6 °C 1039.2 hPa Calm     89 % 0.0 mm 0.0 W/m2 CLR
02:33 -5.0 °C -6.6 °C 1039.2 hPa Calm     89 % 0.0 mm 0.0 W/m2 CLR
02:37 -5.0 °C -6.6 °C 1039.2 hPa Calm     89 % 0.0 mm 0.0 W/m2 CLR
02:42 -5.0 °C -6.6 °C 1039.2 hPa Calm     89 % 0.0 mm 0.0 W/m2 CLR
02:48 -5.0 °C -6.6 °C 1039.2 hPa Calm     89 % 0.0 mm 0.0 W/m2 CLR
02:53 -5.0 °C -6.6 °C 1039.2 hPa Calm     89 % 0.0 mm 0.0 W/m2 CLR
02:58 -5.0 °C -6.4 °C 1039.2 hPa Calm     90 % 0.0 mm 0.0 W/m2 CLR
03:03 -5.0 °C -6.4 °C 1039.2 hPa Calm     90 % 0.0 mm 0.0 W/m2 CLR
03:08 -5.6 °C -7.1 °C 1039.2 hPa Calm     89 % 0.0 mm 0.0 W/m2 CLR
03:13 -5.0 °C -6.6 °C 1039.2 hPa Calm     89 % 0.0 mm 0.0 W/m2 CLR
03:18 -5.0 °C -6.6 °C 1039.2 hPa Calm     89 % 0.0 mm 0.0 W/m2 CLR
03:23 -5.0 °C -6.4 °C 1039.2 hPa Calm     90 % 0.0 mm 0.0 W/m2 CLR
03:28 -5.0 °C -6.6 °C 1039.2 hPa Calm     89 % 0.0 mm 0.0 W/m2 CLR
03:33 -5.6 °C -7.1 °C 1039.2 hPa Calm     89 % 0.0 mm 0.0 W/m2 CLR
03:38 -5.6 °C -7.1 °C 1039.2 hPa Calm     89 % 0.0 mm 0.0 W/m2 CLR
03:43 -5.6 °C -7.1 °C 1039.2 hPa Calm     89 % 0.0 mm 0.0 W/m2 CLR
03:48 -5.6 °C -6.9 °C 1039.2 hPa Calm     90 % 0.0 mm 0.0 W/m2 CLR
03:53 -5.6 °C -7.1 °C 1039.2 hPa Calm     89 % 0.0 mm 0.0 W/m2 CLR
04:03 -5.6 °C -7.1 °C 1039.2 hPa Calm     89 % 0.0 mm 0.0 W/m2 CLR
04:08 -5.6 °C -7.1 °C 1039.2 hPa Calm     89 % 0.0 mm 0.0 W/m2 CLR
04:13 -5.6 °C -6.9 °C 1039.2 hPa Calm     90 % 0.0 mm 0.0 W/m2 CLR
04:18 -5.6 °C -6.9 °C 1039.2 hPa Calm     90 % 0.0 mm 0.0 W/m2 CLR
04:23 -6.1 °C -7.6 °C 1039.2 hPa Calm     89 % 0.0 mm 0.0 W/m2 CLR
04:28 -6.1 °C -7.6 °C 1039.2 hPa Calm     89 % 0.0 mm 0.0 W/m2 CLR
04:33 -6.1 °C -7.6 °C 1038.8 hPa Calm     89 % 0.0 mm 0.0 W/m2 CLR
04:38 -6.1 °C -7.6 °C 1038.8 hPa Calm     89 % 0.0 mm 0.0 W/m2 CLR
04:43 -5.6 °C -7.1 °C 1038.8 hPa Calm     89 % 0.0 mm 0.0 W/m2 CLR
04:48 -6.1 °C -7.5 °C 1038.8 hPa Calm     90 % 0.0 mm 0.0 W/m2 CLR
04:53 -6.1 °C -7.5 °C 1038.8 hPa Calm     90 % 0.0 mm 0.0 W/m2 CLR
04:58 -5.6 °C -7.1 °C 1038.8 hPa Calm     89 % 0.0 mm 0.0 W/m2 CLR
05:03 -5.6 °C -7.1 °C 1038.8 hPa Calm     89 % 0.0 mm 0.0 W/m2 CLR
05:08 -5.6 °C -7.1 °C 1038.8 hPa Calm     89 % 0.0 mm 0.0 W/m2 CLR
05:13 -6.1 °C -7.5 °C 1038.8 hPa Calm     90 % 0.0 mm 0.0 W/m2 CLR
05:18 -6.1 °C -7.5 °C 1038.8 hPa Calm     90 % 0.0 mm 0.0 W/m2 CLR
05:23 -6.1 °C -7.5 °C 1038.8 hPa Calm     90 % 0.0 mm 0.0 W/m2 CLR
05:28 -6.1 °C -7.5 °C 1038.8 hPa Calm     90 % 0.0 mm 0.0 W/m2 CLR
05:33 -6.1 °C -7.5 °C 1039.2 hPa Calm     90 % 0.0 mm 0.0 W/m2 CLR
05:38 -6.1 °C -7.5 °C 1039.2 hPa Calm     90 % 0.0 mm 0.0 W/m2 CLR
05:43 -6.1 °C -7.6 °C 1038.8 hPa Calm     89 % 0.0 mm 0.0 W/m2 CLR
05:48 -6.1 °C -7.6 °C 1038.8 hPa Calm     89 % 0.0 mm 0.0 W/m2 CLR
05:53 -6.1 °C -7.5 °C 1038.8 hPa Calm     90 % 0.0 mm 0.0 W/m2 CLR
05:58 -6.1 °C -7.5 °C 1038.8 hPa Calm     90 % 0.0 mm 0.0 W/m2 CLR
06:03 -6.1 °C -7.5 °C 1038.8 hPa Calm     90 % 0.0 mm 0.0 W/m2 CLR
06:08 -6.1 °C -7.5 °C 1038.8 hPa Calm     90 % 0.0 mm 0.0 W/m2 CLR
06:13 -6.1 °C -7.5 °C 1038.8 hPa Calm     90 % 0.0 mm 0.0 W/m2 CLR
06:18 -6.1 °C -7.5 °C 1038.8 hPa Calm     90 % 0.0 mm 0.0 W/m2 CLR
06:23 -6.7 °C -8.2 °C 1038.8 hPa Calm     89 % 0.0 mm 0.0 W/m2 CLR
06:28 -6.7 °C -8.2 °C 1038.8 hPa Calm     89 % 0.0 mm 0.0 W/m2 CLR
06:29 -6.7 °C -8.1 °C 1038.8 hPa Calm     90 % 0.0 mm 0.0 W/m2 CLR
06:34 -6.7 °C -8.2 °C 1038.8 hPa Calm     89 % 0.0 mm 0.0 W/m2 CLR
06:44 -6.7 °C -8.1 °C 1038.8 hPa Calm     90 % 0.0 mm 0.0 W/m2 CLR
06:49 -6.7 °C -8.1 °C 1038.8 hPa Calm     90 % 0.0 mm 0.0 W/m2 CLR
06:54 -6.7 °C -8.1 °C 1038.8 hPa Calm     90 % 0.0 mm 0.0 W/m2 CLR
06:59 -7.2 °C -8.6 °C 1038.8 hPa Calm     90 % 0.0 mm 0.0 W/m2 CLR
07:04 -7.2 °C -8.7 °C 1038.8 hPa Calm     89 % 0.0 mm 0.0 W/m2 CLR
07:09 -7.2 °C -8.6 °C 1038.8 hPa Calm     90 % 0.0 mm 0.0 W/m2 CLR
07:14 -6.7 °C -8.1 °C 1039.2 hPa Calm     90 % 0.0 mm 0.0 W/m2 CLR
07:19 -6.7 °C -8.1 °C 1038.8 hPa Calm     90 % 0.0 mm 0.0 W/m2 CLR
07:24 -6.7 °C -8.2 °C 1038.8 hPa Calm     89 % 0.0 mm 0.0 W/m2 CLR
07:29 -7.2 °C -8.6 °C 1038.8 hPa Calm     90 % 0.0 mm 0.0 W/m2 CLR
07:34 -7.2 °C -8.6 °C 1038.8 hPa Calm     90 % 0.0 mm 0.0 W/m2 CLR
07:39 -7.2 °C -8.6 °C 1038.8 hPa Calm     90 % 0.0 mm 0.0 W/m2 CLR
07:44 -6.7 °C -8.1 °C 1038.8 hPa Calm     90 % 0.0 mm 0.0 W/m2 CLR
07:49 -6.7 °C -8.1 °C 1038.8 hPa Calm     90 % 0.0 mm 0.0 W/m2 CLR
07:54 -6.7 °C -8.1 °C 1038.8 hPa Calm     90 % 0.0 mm 0.0 W/m2 CLR
07:59 -6.7 °C -8.1 °C 1038.8 hPa Calm     90 % 0.0 mm 0.0 W/m2 CLR
08:04 -6.7 °C -8.1 °C 1038.8 hPa Calm     90 % 0.0 mm 0.0 W/m2 OVC
08:09 -6.7 °C -8.1 °C 1039.2 hPa Calm     90 % 0.0 mm 0.0 W/m2 OVC
08:14 -6.7 °C -7.9 °C 1039.2 hPa Calm     91 % 0.0 mm 5.0 W/m2 OVC
08:19 -6.7 °C -8.1 °C 1039.2 hPa Calm     90 % 0.0 mm 7.0 W/m2 BKN
08:24 -6.7 °C -8.1 °C 1039.2 hPa Calm     90 % 0.0 mm 11.0 W/m2 BKN
08:29 -7.2 °C -8.6 °C 1039.2 hPa Calm     90 % 0.0 mm 14.0 W/m2 BKN
08:34 -6.7 °C -8.1 °C 1039.2 hPa Calm     90 % 0.0 mm 16.0 W/m2 BKN
08:39 -6.7 °C -8.1 °C 1039.2 hPa Calm     90 % 0.0 mm 19.0 W/m2 BKN
08:44 -6.7 °C -8.1 °C 1039.2 hPa Calm     90 % 0.0 mm 30.0 W/m2 BKN
08:49 -6.7 °C -8.1 °C 1039.2 hPa Calm     90 % 0.0 mm 40.0 W/m2 BKN
08:54 -6.7 °C -8.1 °C 1039.2 hPa Calm     90 % 0.0 mm 49.0 W/m2 SCT
08:59 -6.7 °C -8.1 °C 1039.2 hPa Calm     90 % 0.0 mm 60.0 W/m2 SCT
09:04 -6.7 °C -8.2 °C 1039.2 hPa Calm     89 % 0.0 mm 69.0 W/m2 FEW
09:09 -6.7 °C -8.1 °C 1039.2 hPa Calm     90 % 0.0 mm 76.0 W/m2 FEW
09:19 -6.7 °C -8.2 °C 1039.5 hPa Calm     89 % 0.0 mm 105.0 W/m2 CLR
09:24 -6.1 °C -7.6 °C 1039.5 hPa Calm     89 % 0.0 mm 118.0 W/m2 CLR
09:29 -5.6 °C -7.2 °C 1039.5 hPa Calm     88 % 0.0 mm 151.0 W/m2 CLR
09:34 -5.6 °C -7.2 °C 1039.5 hPa Calm     88 % 0.0 mm 172.0 W/m2 CLR
09:39 -5.6 °C -7.2 °C 1039.5 hPa Calm     88 % 0.0 mm 165.0 W/m2 CLR
09:44 -5.0 °C -6.8 °C 1039.5 hPa Calm     87 % 0.0 mm 169.0 W/m2 CLR
09:49 -5.0 °C -6.7 °C 1039.2 hPa Calm     88 % 0.0 mm 181.0 W/m2 CLR
09:54 -4.4 °C -6.3 °C 1039.5 hPa Calm     87 % 0.0 mm 127.0 W/m2 CLR
09:59 -4.4 °C -6.6 °C 1039.5 hPa Calm     85 % 0.0 mm 209.0 W/m2 CLR
10:04 -4.4 °C -6.6 °C 1039.5 hPa Calm     85 % 0.3 mm 95.0 W/m2 RA
10:09 -3.9 °C -6.3 °C 1039.5 hPa Calm     83 % 0.3 mm 230.0 W/m2 CLR
10:14 -3.9 °C -6.5 °C 1039.5 hPa Calm     82 % 0.3 mm 243.0 W/m2 CLR
10:19 -3.3 °C -6.1 °C 1039.5 hPa Calm     81 % 0.3 mm 253.0 W/m2 CLR
10:24 -3.3 °C -6.1 °C 1039.5 hPa Calm     81 % 0.3 mm 265.0 W/m2 CLR
10:34 -2.2 °C -5.1 °C 1039.8 hPa Calm     81 % 0.3 mm 290.0 W/m2 CLR
10:39 -2.2 °C -5.4 °C 1039.5 hPa Calm     79 % 0.3 mm 302.0 W/m2 CLR
10:44 -1.7 °C -4.8 °C 1039.5 hPa Calm     79 % 0.3 mm 311.0 W/m2 CLR
10:49 -1.1 °C -4.3 °C 1039.5 hPa Calm     79 % 0.3 mm 318.0 W/m2 CLR
10:54 -1.1 °C -4.3 °C 1039.5 hPa Calm     79 % 0.3 mm 327.0 W/m2 CLR
10:59 -0.6 °C -3.9 °C 1039.5 hPa Calm     78 % 0.3 mm 341.0 W/m2 CLR
11:04 0.0 °C -3.7 °C 1039.5 hPa Calm     76 % 0.0 mm 348.0 W/m2 CLR
11:09 0.0 °C -3.9 °C 1039.5 hPa Calm     75 % 0.0 mm 357.0 W/m2 CLR
11:14 0.6 °C -3.7 °C 1039.5 hPa Calm     73 % 0.0 mm 360.0 W/m2 CLR
11:19 1.1 °C -3.4 °C 1039.5 hPa Calm     72 % 0.0 mm 367.0 W/m2 CLR
11:24 1.7 °C -3.1 °C 1039.5 hPa Calm     71 % 0.0 mm 378.0 W/m2 CLR
11:29 2.2 °C -2.7 °C 1039.5 hPa Calm     70 % 0.0 mm 387.0 W/m2 CLR
11:34 2.8 °C -2.2 °C 1039.5 hPa ENE 1.9 km/h   70 % 0.0 mm 394.0 W/m2 CLR
11:39 3.3 °C -1.8 °C 1039.2 hPa Calm     69 % 0.0 mm 399.0 W/m2 CLR
11:44 3.9 °C -1.5 °C 1039.2 hPa Calm     68 % 0.0 mm 406.0 W/m2 CLR
11:49 4.4 °C -0.9 °C 1039.2 hPa Calm     68 % 0.0 mm 408.0 W/m2 CLR
11:54 4.4 °C -1.2 °C 1039.2 hPa Calm     67 % 0.0 mm 413.0 W/m2 CLR
11:59 5.0 °C -0.6 °C 1039.2 hPa Calm     67 % 0.0 mm 417.0 W/m2 CLR
12:04 5.0 °C -0.8 °C 1038.8 hPa Calm     66 % 0.0 mm 422.0 W/m2 CLR
12:09 5.6 °C -0.3 °C 1038.8 hPa Calm     66 % 0.0 mm 425.0 W/m2 CLR
12:14 5.6 °C -0.5 °C 1038.8 hPa ESE 1.6 km/h 1.6 km/h 65 % 0.0 mm 429.0 W/m2 CLR
12:19 5.6 °C -0.5 °C 1038.8 hPa East 1.9 km/h   65 % 0.0 mm 431.0 W/m2 CLR
12:24 6.1 °C -0.2 °C 1038.8 hPa East 1.9 km/h 1.9 km/h 64 % 0.0 mm 434.0 W/m2 CLR
12:29 6.1 °C -0.4 °C 1038.5 hPa SE 3.7 km/h 3.7 km/h 63 % 0.0 mm 434.0 W/m2 CLR
12:34 6.1 °C -0.4 °C 1038.5 hPa East 1.9 km/h   63 % 0.0 mm 436.0 W/m2 CLR
12:39 6.1 °C -0.4 °C 1038.5 hPa ESE 5.6 km/h 5.6 km/h 63 % 0.0 mm 438.0 W/m2 CLR
12:44 6.1 °C -0.2 °C 1038.5 hPa East 6.4 km/h 6.4 km/h 64 % 0.0 mm 439.0 W/m2 CLR
12:49 6.7 °C 0.1 °C 1038.1 hPa ENE 5.6 km/h 5.6 km/h 63 % 0.0 mm 439.0 W/m2 CLR
12:54 6.7 °C 0.1 °C 1038.1 hPa ENE 5.6 km/h 5.6 km/h 63 % 0.0 mm 438.0 W/m2 CLR
12:55 6.7 °C 0.1 °C 1038.1 hPa East 4.8 km/h 4.8 km/h 63 % 0.0 mm 439.0 W/m2 CLR
13:00 6.7 °C 0.1 °C 1038.1 hPa East 3.7 km/h 3.7 km/h 63 % 0.0 mm 439.0 W/m2 CLR
13:05 6.7 °C -0.1 °C 1038.1 hPa ENE 5.6 km/h   62 % 0.0 mm 438.0 W/m2 CLR
13:10 6.7 °C -0.1 °C 1038.1 hPa ENE 5.6 km/h 5.6 km/h 62 % 0.0 mm 436.0 W/m2 CLR
13:15 7.2 °C 0.4 °C 1038.1 hPa East 6.4 km/h 6.4 km/h 62 % 0.0 mm 436.0 W/m2 CLR
13:20 7.2 °C 0.2 °C 1037.8 hPa ENE 5.6 km/h 5.6 km/h 61 % 0.0 mm 429.0 W/m2 CLR
13:25 7.2 °C 0.2 °C 1037.8 hPa Calm     61 % 0.0 mm 431.0 W/m2 CLR
13:30 7.2 °C 0.2 °C 1037.8 hPa Calm     61 % 0.0 mm 427.0 W/m2 CLR
13:35 7.2 °C 0.2 °C 1037.8 hPa East 5.6 km/h 5.6 km/h 61 % 0.0 mm 424.0 W/m2 CLR
13:40 7.8 °C 0.5 °C 1037.8 hPa East 6.4 km/h 6.4 km/h 60 % 0.0 mm 420.0 W/m2 CLR
13:45 7.8 °C 0.7 °C 1037.8 hPa ENE 1.9 km/h   61 % 0.0 mm 417.0 W/m2 CLR
13:50 7.8 °C 0.5 °C 1037.8 hPa ENE 5.6 km/h 5.6 km/h 60 % 0.0 mm 411.0 W/m2 CLR
13:55 7.2 °C -0.1 °C 1037.8 hPa East 1.9 km/h 1.9 km/h 60 % 0.0 mm 408.0 W/m2 CLR
14:05 7.8 °C 0.3 °C 1037.5 hPa ENE 5.6 km/h 5.6 km/h 59 % 0.0 mm 397.0 W/m2 CLR
14:10 7.8 °C 0.3 °C 1037.5 hPa East 5.6 km/h 5.6 km/h 59 % 0.0 mm 394.0 W/m2 CLR
14:11 7.8 °C 0.3 °C 1037.5 hPa East 5.6 km/h 5.6 km/h 59 % 0.0 mm 394.0 W/m2 CLR
14:16 7.8 °C 0.3 °C 1037.5 hPa ENE 5.6 km/h 5.6 km/h 59 % 0.0 mm 387.0 W/m2 CLR
14:21 7.8 °C 0.3 °C 1037.1 hPa East 1.6 km/h 1.6 km/h 59 % 0.0 mm 381.0 W/m2 CLR
14:26 8.3 °C 0.8 °C 1037.1 hPa ENE 5.6 km/h 5.6 km/h 59 % 0.0 mm 374.0 W/m2 CLR
14:31 8.3 °C 0.6 °C 1037.1 hPa East 5.6 km/h 5.6 km/h 58 % 0.0 mm 367.0 W/m2 CLR
14:36 8.3 °C 0.6 °C 1037.1 hPa ENE 5.6 km/h 5.6 km/h 58 % 0.0 mm 360.0 W/m2 CLR
14:41 8.3 °C 0.6 °C 1036.8 hPa East 3.2 km/h 3.2 km/h 58 % 0.0 mm 353.0 W/m2 CLR
14:46 8.3 °C 0.6 °C 1036.8 hPa Calm     58 % 0.0 mm 345.0 W/m2 CLR
14:51 8.3 °C 0.6 °C 1036.8 hPa East 3.7 km/h 3.7 km/h 58 % 0.0 mm 336.0 W/m2 CLR
14:56 8.3 °C 0.6 °C 1036.8 hPa Calm     58 % 0.0 mm 327.0 W/m2 CLR
15:01 8.3 °C 0.6 °C 1036.8 hPa Calm     58 % 0.0 mm 316.0 W/m2 CLR
15:06 8.9 °C 1.1 °C 1036.8 hPa East 3.7 km/h 3.7 km/h 58 % 0.0 mm 306.0 W/m2 CLR
15:11 8.9 °C 0.8 °C 1036.8 hPa ENE 3.7 km/h 3.7 km/h 57 % 0.0 mm 297.0 W/m2 CLR
15:16 8.9 °C 1.1 °C 1036.8 hPa Calm     58 % 0.0 mm 287.0 W/m2 CLR
15:21 8.9 °C 1.1 °C 1036.8 hPa East 5.6 km/h 5.6 km/h 58 % 0.0 mm 276.0 W/m2 CLR
15:26 8.9 °C 1.1 °C 1036.8 hPa Calm     58 % 0.0 mm 264.0 W/m2 CLR
15:31 8.9 °C 1.1 °C 1036.8 hPa ENE 8.0 km/h 8.0 km/h 58 % 0.0 mm 251.0 W/m2 CLR
15:36 8.9 °C 1.1 °C 1036.5 hPa ENE 8.0 km/h 8.0 km/h 58 % 0.0 mm 239.0 W/m2 CLR
15:41 8.9 °C 1.1 °C 1036.5 hPa ENE 1.9 km/h   58 % 0.0 mm 223.0 W/m2 CLR
15:46 8.9 °C 1.1 °C 1036.5 hPa ENE 5.6 km/h 5.6 km/h 58 % 0.0 mm 211.0 W/m2 CLR
15:51 8.9 °C 1.1 °C 1036.5 hPa NE 5.6 km/h 5.6 km/h 58 % 0.0 mm 199.0 W/m2 CLR
15:56 8.3 °C 0.6 °C 1036.5 hPa Calm     58 % 0.0 mm 185.0 W/m2 CLR
16:01 8.3 °C 0.6 °C 1036.5 hPa Calm     58 % 0.0 mm 169.0 W/m2 CLR
16:06 8.3 °C 0.6 °C 1036.5 hPa ENE 6.4 km/h 6.4 km/h 58 % 0.0 mm 156.0 W/m2 CLR
16:11 8.3 °C 0.6 °C 1036.5 hPa ENE 5.6 km/h 5.6 km/h 58 % 0.0 mm 142.0 W/m2 CLR
16:16 7.8 °C 0.3 °C 1036.5 hPa Calm     59 % 0.0 mm 130.0 W/m2 CLR
16:21 7.8 °C 0.3 °C 1036.5 hPa Calm     59 % 0.0 mm 116.0 W/m2 CLR
16:26 7.8 °C 0.3 °C 1036.5 hPa Calm   0.2 km/h 59 % 0.0 mm 102.0 W/m2 CLR
16:31 7.2 °C -0.5 °C 1036.5 hPa Calm     58 % 0.0 mm 90.0 W/m2 CLR
16:36 7.2 °C -0.3 °C 1036.5 hPa Calm     59 % 0.0 mm 77.0 W/m2 FEW
16:41 6.7 °C -0.8 °C 1036.5 hPa Calm     59 % 0.0 mm 65.0 W/m2 SCT
16:46 6.1 °C -1.3 °C 1036.5 hPa Calm     59 % 0.0 mm 51.0 W/m2 SCT
16:51 6.1 °C -1.3 °C 1036.5 hPa Calm     59 % 0.0 mm 42.0 W/m2 SCT
16:56 5.6 °C -1.6 °C 1036.5 hPa Calm     60 % 0.0 mm 33.0 W/m2 BKN
17:01 5.0 °C -2.1 °C 1036.5 hPa Calm     60 % 0.0 mm 25.0 W/m2 BKN
17:06 4.4 °C -2.7 °C 1036.5 hPa Calm     60 % 0.0 mm 18.0 W/m2 BKN
17:07 4.4 °C -2.7 °C 1036.1 hPa Calm     60 % 0.0 mm 16.0 W/m2 BKN
17:12 4.4 °C -2.7 °C 1036.5 hPa Calm     60 % 0.0 mm 14.0 W/m2 BKN
17:17 3.9 °C -2.9 °C 1036.5 hPa Calm     61 % 0.0 mm 12.0 W/m2 BKN
17:22 3.3 °C -3.3 °C 1036.5 hPa Calm     62 % 0.0 mm 9.0 W/m2 BKN
17:27 2.8 °C -3.8 °C 1036.5 hPa Calm     62 % 0.0 mm 7.0 W/m2 BKN
17:32 2.8 °C -3.6 °C 1036.5 hPa Calm     63 % 0.0 mm 5.0 W/m2 OVC
17:42 2.2 °C -3.9 °C 1036.5 hPa Calm     64 % 0.0 mm 0.0 W/m2 CLR
17:47 2.2 °C -3.9 °C 1036.5 hPa Calm     64 % 0.0 mm 0.0 W/m2 CLR
17:52 2.8 °C -3.2 °C 1036.5 hPa Calm     65 % 0.0 mm 0.0 W/m2 CLR
17:57 2.8 °C -2.9 °C 1036.5 hPa Calm     66 % 0.0 mm 0.0 W/m2 CLR
18:02 2.8 °C -2.9 °C 1036.5 hPa Calm     66 % 0.0 mm 0.0 W/m2 CLR
18:07 2.2 °C -3.7 °C 1036.5 hPa Calm     65 % 0.0 mm 0.0 W/m2 CLR
18:12 2.2 °C -3.7 °C 1036.5 hPa Calm     65 % 0.0 mm 0.0 W/m2 CLR
18:17 2.2 °C -3.3 °C 1036.5 hPa Calm     67 % 0.0 mm 0.0 W/m2 CLR
18:22 1.7 °C -3.4 °C 1036.5 hPa Calm     69 % 0.0 mm 0.0 W/m2 CLR
18:27 1.7 °C -3.2 °C 1036.5 hPa Calm     70 % 0.0 mm 0.0 W/m2 CLR
18:32 1.1 °C -3.8 °C 1036.8 hPa Calm     70 % 0.0 mm 0.0 W/m2 CLR
18:37 1.1 °C -3.6 °C 1036.5 hPa Calm     71 % 0.0 mm 0.0 W/m2 CLR
18:42 0.6 °C -3.9 °C 1036.5 hPa Calm     72 % 0.0 mm 0.0 W/m2 CLR
18:47 0.6 °C -3.7 °C 1036.8 hPa Calm     73 % 0.0 mm 0.0 W/m2 CLR
18:53 0.6 °C -3.6 °C 1036.8 hPa Calm     74 % 0.0 mm 0.0 W/m2 CLR
18:58 0.6 °C -3.6 °C 1036.8 hPa Calm     74 % 0.0 mm 0.0 W/m2 CLR
19:03 0.0 °C -3.9 °C 1036.8 hPa Calm     75 % 0.0 mm 0.0 W/m2 CLR
19:08 0.0 °C -3.7 °C 1036.8 hPa Calm     76 % 0.0 mm 0.0 W/m2 CLR
19:13 -0.6 °C -4.3 °C 1036.8 hPa Calm     76 % 0.0 mm 0.0 W/m2 CLR
19:18 -1.1 °C -4.8 °C 1036.8 hPa Calm     76 % 0.0 mm 0.0 W/m2 CLR
19:23 -1.7 °C -5.2 °C 1036.8 hPa Calm     77 % 0.0 mm 0.0 W/m2 CLR
19:28 -1.7 °C -5.2 °C 1036.8 hPa Calm     77 % 0.0 mm 0.0 W/m2 CLR
19:33 -1.7 °C -5.2 °C 1036.8 hPa Calm     77 % 0.0 mm 0.0 W/m2 CLR
19:38 -2.2 °C -5.6 °C 1036.8 hPa Calm     78 % 0.0 mm 0.0 W/m2 CLR
19:43 -1.7 °C -5.0 °C 1036.8 hPa WSW 5.6 km/h 5.6 km/h 78 % 0.0 mm 0.0 W/m2 CLR
19:48 -2.2 °C -5.4 °C 1036.8 hPa WSW 7.4 km/h 7.4 km/h 79 % 0.0 mm 0.0 W/m2 CLR
19:53 -2.2 °C -5.4 °C 1036.8 hPa Calm     79 % 0.0 mm 0.0 W/m2 CLR
19:58 -2.2 °C -5.4 °C 1036.8 hPa Calm     79 % 0.0 mm 0.0 W/m2 CLR
20:03 -2.2 °C -5.4 °C 1036.8 hPa Calm     79 % 0.0 mm 0.0 W/m2 CLR
20:08 -2.8 °C -5.9 °C 1036.8 hPa Calm     79 % 0.0 mm 0.0 W/m2 CLR
20:13 -2.8 °C -5.7 °C 1037.1 hPa Calm     80 % 0.0 mm 0.0 W/m2 CLR
20:18 -2.8 °C -5.7 °C 1037.1 hPa Calm     80 % 0.0 mm 0.0 W/m2 CLR
20:23 -2.8 °C -5.7 °C 1036.8 hPa WSW 1.9 km/h 1.9 km/h 80 % 0.0 mm 0.0 W/m2 CLR
20:28 -3.3 °C -6.3 °C 1037.1 hPa WSW 3.7 km/h 3.7 km/h 80 % 0.0 mm 0.0 W/m2 CLR
20:33 -3.3 °C -6.1 °C 1037.1 hPa Calm     81 % 0.0 mm 0.0 W/m2 CLR
20:38 -3.3 °C -6.1 °C 1037.1 hPa Calm     81 % 0.0 mm 0.0 W/m2 CLR
20:43 -3.3 °C -6.1 °C 1037.1 hPa Calm     81 % 0.0 mm 0.0 W/m2 CLR
20:48 -3.3 °C -6.1 °C 1037.1 hPa Calm     81 % 0.0 mm 0.0 W/m2 CLR
20:53 -3.3 °C -5.9 °C 1037.1 hPa Calm     82 % 0.0 mm 0.0 W/m2 CLR
20:58 -3.3 °C -5.9 °C 1037.1 hPa Calm     82 % 0.0 mm 0.0 W/m2 CLR
21:08 -3.3 °C -5.9 °C 1037.1 hPa WSW 5.6 km/h 5.6 km/h 82 % 0.0 mm 0.0 W/m2 CLR
21:13 -3.9 °C -6.3 °C 1037.1 hPa WSW 8.0 km/h 8.0 km/h 83 % 0.0 mm 0.0 W/m2 CLR
21:18 -3.9 °C -6.2 °C 1037.1 hPa West 7.4 km/h 7.4 km/h 84 % 0.0 mm 0.0 W/m2 CLR
21:23 -3.9 °C -6.2 °C 1037.1 hPa Calm     84 % 0.0 mm 0.0 W/m2 CLR
21:28 -3.9 °C -6.3 °C 1037.1 hPa Calm     83 % 0.0 mm 0.0 W/m2 CLR
21:33 -3.9 °C -6.3 °C 1037.1 hPa West 4.8 km/h 4.8 km/h 83 % 0.0 mm 0.0 W/m2 CLR
21:38 -3.9 °C -6.3 °C 1037.1 hPa WSW 11.1 km/h 11.1 km/h 83 % 0.0 mm 0.0 W/m2 CLR
21:43 -4.4 °C -6.7 °C 1037.1 hPa WSW 5.6 km/h 5.6 km/h 84 % 0.0 mm 0.0 W/m2 CLR
21:48 -4.4 °C -6.7 °C 1037.1 hPa Calm     84 % 0.0 mm 0.0 W/m2 CLR
21:53 -4.4 °C -6.7 °C 1037.1 hPa Calm     84 % 0.0 mm 0.0 W/m2 CLR
21:59 -4.4 °C -6.7 °C 1037.1 hPa Calm     84 % 0.0 mm 0.0 W/m2 CLR
22:04 -4.4 °C -6.7 °C 1037.1 hPa WSW 1.9 km/h 1.9 km/h 84 % 0.0 mm 0.0 W/m2 CLR
22:09 -4.4 °C -6.7 °C 1037.1 hPa WSW 1.9 km/h 1.9 km/h 84 % 0.0 mm 0.0 W/m2 CLR
22:14 -4.4 °C -6.6 °C 1037.1 hPa WSW 5.6 km/h 5.6 km/h 85 % 0.0 mm 0.0 W/m2 CLR
22:19 -4.4 °C -6.6 °C 1037.1 hPa Calm     85 % 0.0 mm 0.0 W/m2 CLR
22:24 -4.4 °C -6.6 °C 1037.1 hPa Calm     85 % 0.0 mm 0.0 W/m2 CLR
22:29 -4.4 °C -6.6 °C 1037.1 hPa WSW 1.6 km/h 1.6 km/h 85 % 0.0 mm 0.0 W/m2 CLR
22:34 -4.4 °C -6.6 °C 1037.1 hPa Calm     85 % 0.0 mm 0.0 W/m2 CLR
22:39 -4.4 °C -6.6 °C 1037.1 hPa West 5.6 km/h 5.6 km/h 85 % 0.0 mm 0.0 W/m2 CLR
22:44 -4.4 °C -6.4 °C 1037.1 hPa WSW 3.7 km/h 3.7 km/h 86 % 0.0 mm 0.0 W/m2 CLR
22:49 -4.4 °C -6.4 °C 1037.5 hPa Calm     86 % 0.0 mm 0.0 W/m2 CLR
22:54 -4.4 °C -6.4 °C 1037.5 hPa West 5.6 km/h 5.6 km/h 86 % 0.0 mm 0.0 W/m2 CLR
22:59 -4.4 °C -6.3 °C 1037.5 hPa West 5.6 km/h 5.6 km/h 87 % 0.0 mm 0.0 W/m2 CLR
23:04 -4.4 °C -6.3 °C 1037.5 hPa West 5.6 km/h 5.6 km/h 87 % 0.0 mm 0.0 W/m2 CLR
23:09 -4.4 °C -6.4 °C 1037.1 hPa Calm     86 % 0.0 mm 0.0 W/m2 CLR
23:14 -5.0 °C -7.0 °C 1037.5 hPa Calm     86 % 0.0 mm 0.0 W/m2 CLR
23:19 -5.0 °C -7.0 °C 1037.1 hPa Calm     86 % 0.0 mm 0.0 W/m2 CLR
23:24 -5.0 °C -7.0 °C 1037.1 hPa West 5.6 km/h 5.6 km/h 86 % 0.0 mm 0.0 W/m2 CLR
23:29 -5.0 °C -6.8 °C 1037.1 hPa West 8.0 km/h 8.0 km/h 87 % 0.0 mm 0.0 W/m2 CLR
23:34 -5.0 °C -6.8 °C 1037.5 hPa West 6.4 km/h 6.4 km/h 87 % 0.0 mm 0.0 W/m2 CLR
23:39 -5.6 °C -7.4 °C 1037.5 hPa West 3.7 km/h 3.7 km/h 87 % 0.0 mm 0.0 W/m2 CLR
23:44 -5.6 °C -7.4 °C 1037.5 hPa Calm     87 % 0.0 mm 0.0 W/m2 CLR
23:49 -5.6 °C -7.4 °C 1037.5 hPa West 3.7 km/h 3.7 km/h 87 % 0.0 mm 0.0 W/m2 CLR
23:54 -5.6 °C -7.4 °C 1037.5 hPa Calm     87 % 0.0 mm 0.0 W/m2 CLR
23:59 -5.6 °C -7.4 °C 1037.5 hPa WSW 5.6 km/h 5.6 km/h 87 % 0.0 mm 0.0 W/m2 CLR
Lo Temps de Massalio
Compliments of Weather Underground - 1.25 mb